sensor_id;sensor_type;location;lat;lon;timestamp;pressure;altitude;pressure_sealevel;temperature;humidity
47260;BME280;32999;52.412;4.890;2023-02-14T00:38:25;103510.72;;;4.80;100.00
47260;BME280;32999;52.412;4.890;2023-02-14T00:44:10;103415.00;;;4.22;100.00
47260;BME280;32999;52.412;4.890;2023-02-14T01:37:53;103467.75;;;4.09;100.00
47260;BME280;32999;52.412;4.890;2023-02-14T02:37:54;103462.09;;;3.65;100.00
47260;BME280;32999;52.412;4.890;2023-02-14T03:37:39;103432.75;;;3.35;100.00
47260;BME280;32999;52.412;4.890;2023-02-14T06:03:47;103407.50;;;2.74;100.00
47260;BME280;32999;52.412;4.890;2023-02-14T07:21:52;103400.00;;;3.55;100.00
47260;BME280;32999;52.412;4.890;2023-02-14T07:27:18;103392.94;;;3.55;100.00
47260;BME280;32999;52.412;4.890;2023-02-14T08:02:24;103421.22;;;5.01;100.00
47260;BME280;32999;52.412;4.890;2023-02-14T08:50:38;103427.38;;;6.91;100.00
47260;BME280;32999;52.412;4.890;2023-02-14T09:02:05;103450.41;;;9.33;100.00
47260;BME280;32999;52.412;4.890;2023-02-14T09:07:08;103330.88;;;10.27;100.00
47260;BME280;32999;52.412;4.890;2023-02-14T09:12:11;103345.28;;;11.01;100.00
47260;BME280;32999;52.412;4.890;2023-02-14T09:17:13;103361.22;;;12.16;100.00
47260;BME280;32999;52.412;4.890;2023-02-14T09:22:18;103382.16;;;12.91;100.00
47260;BME280;32999;52.412;4.890;2023-02-14T09:27:20;103287.53;;;13.09;100.00
47260;BME280;32999;52.412;4.890;2023-02-14T09:32:22;103351.03;;;14.13;100.00
47260;BME280;32999;52.412;4.890;2023-02-14T09:37:27;103383.75;;;15.26;100.00
47260;BME280;32999;52.412;4.890;2023-02-14T09:42:58;103380.56;;;15.48;100.00
47260;BME280;32999;52.412;4.890;2023-02-14T09:48:04;103382.06;;;16.20;100.00
47260;BME280;32999;52.412;4.890;2023-02-14T09:53:17;103372.19;;;16.95;100.00
47260;BME280;32999;52.412;4.890;2023-02-14T09:58:22;103325.94;;;16.98;100.00
47260;BME280;32999;52.412;4.890;2023-02-14T10:08:56;103380.66;;;17.49;100.00
47260;BME280;32999;52.412;4.890;2023-02-14T10:14:07;103368.59;;;17.84;100.00
47260;BME280;32999;52.412;4.890;2023-02-14T10:19:16;103364.97;;;18.16;97.66
47260;BME280;32999;52.412;4.890;2023-02-14T10:24:25;103266.97;;;17.90;95.88
47260;BME280;32999;52.412;4.890;2023-02-14T10:29:29;103295.34;;;18.33;93.46
47260;BME280;32999;52.412;4.890;2023-02-14T10:34:34;103401.06;;;17.92;96.66
47260;BME280;32999;52.412;4.890;2023-02-14T10:39:53;103324.69;;;17.58;96.06
47260;BME280;32999;52.412;4.890;2023-02-14T10:45:04;103304.13;;;16.84;98.30
47260;BME280;32999;52.412;4.890;2023-02-14T10:50:18;103266.16;;;16.93;96.75
47260;BME280;32999;52.412;4.890;2023-02-14T10:55:28;103375.06;;;16.94;99.61
47260;BME280;32999;52.412;4.890;2023-02-14T11:00:35;103358.78;;;16.19;100.00
47260;BME280;32999;52.412;4.890;2023-02-14T11:05:41;103383.38;;;15.56;100.00
47260;BME280;32999;52.412;4.890;2023-02-14T11:10:45;103353.34;;;15.16;100.00
47260;BME280;32999;52.412;4.890;2023-02-14T11:15:47;103358.50;;;15.27;100.00
47260;BME280;32999;52.412;4.890;2023-02-14T11:20:59;103211.31;;;14.56;100.00
47260;BME280;32999;52.412;4.890;2023-02-14T11:26:06;103350.13;;;14.59;100.00
47260;BME280;32999;52.412;4.890;2023-02-14T11:31:09;103221.50;;;14.17;100.00
47260;BME280;32999;52.412;4.890;2023-02-14T11:36:12;103330.03;;;14.89;100.00
47260;BME280;32999;52.412;4.890;2023-02-14T11:41:17;103321.78;;;15.26;100.00
47260;BME280;32999;52.412;4.890;2023-02-14T11:46:25;103225.50;;;14.31;100.00
47260;BME280;32999;52.412;4.890;2023-02-14T11:51:30;103294.84;;;14.82;100.00
47260;BME280;32999;52.412;4.890;2023-02-14T11:56:53;103300.19;;;15.00;100.00
47260;BME280;32999;52.412;4.890;2023-02-14T12:01:57;103293.91;;;14.56;100.00
47260;BME280;32999;52.412;4.890;2023-02-14T12:07:16;103288.56;;;15.00;100.00
47260;BME280;32999;52.412;4.890;2023-02-14T12:12:21;103236.25;;;15.02;100.00
47260;BME280;32999;52.412;4.890;2023-02-14T12:17:28;103254.00;;;15.39;100.00
47260;BME280;32999;52.412;4.890;2023-02-14T12:22:35;103253.88;;;15.74;100.00
47260;BME280;32999;52.412;4.890;2023-02-14T12:27:46;103154.31;;;14.61;100.00
47260;BME280;32999;52.412;4.890;2023-02-14T12:32:51;103252.84;;;15.41;100.00
47260;BME280;32999;52.412;4.890;2023-02-14T12:38:01;103203.34;;;15.16;100.00
47260;BME280;32999;52.412;4.890;2023-02-14T12:43:21;103233.44;;;15.12;100.00
47260;BME280;32999;52.412;4.890;2023-02-14T12:48:34;103206.84;;;15.09;100.00
47260;BME280;32999;52.412;4.890;2023-02-14T12:53:58;103223.50;;;15.12;100.00
47260;BME280;32999;52.412;4.890;2023-02-14T12:59:14;103220.72;;;14.96;100.00
47260;BME280;32999;52.412;4.890;2023-02-14T13:09:53;103212.47;;;14.97;100.00
47260;BME280;32999;52.412;4.890;2023-02-14T13:15:10;103204.19;;;14.91;100.00
47260;BME280;32999;52.412;4.890;2023-02-14T13:25:44;103191.44;;;14.40;100.00
47260;BME280;32999;52.412;4.890;2023-02-14T13:30:50;103200.16;;;14.34;100.00
47260;BME280;32999;52.412;4.890;2023-02-14T13:35:55;103058.78;;;13.78;100.00
47260;BME280;32999;52.412;4.890;2023-02-14T13:40:58;103182.09;;;14.44;100.00
47260;BME280;32999;52.412;4.890;2023-02-14T13:46:02;103123.44;;;14.29;100.00
47260;BME280;32999;52.412;4.890;2023-02-14T13:51:05;103154.88;;;14.47;100.00
47260;BME280;32999;52.412;4.890;2023-02-14T13:56:30;103162.88;;;14.56;100.00
47260;BME280;32999;52.412;4.890;2023-02-14T14:01:37;103164.22;;;14.78;100.00
47260;BME280;32999;52.412;4.890;2023-02-14T14:07:16;103163.00;;;14.73;100.00
47260;BME280;32999;52.412;4.890;2023-02-14T14:12:43;103154.72;;;14.48;100.00
47260;BME280;32999;52.412;4.890;2023-02-14T14:18:29;103170.09;;;14.56;100.00
47260;BME280;32999;52.412;4.890;2023-02-14T14:23:39;103143.41;;;14.62;100.00
47260;BME280;32999;52.412;4.890;2023-02-14T14:28:44;103171.00;;;14.64;100.00
47260;BME280;32999;52.412;4.890;2023-02-14T14:33:56;103171.91;;;14.73;100.00
47260;BME280;32999;52.412;4.890;2023-02-14T14:38:59;103155.44;;;14.50;100.00
47260;BME280;32999;52.412;4.890;2023-02-14T14:44:03;103073.28;;;14.03;100.00
47260;BME280;32999;52.412;4.890;2023-02-14T14:49:09;103071.97;;;14.07;100.00
47260;BME280;32999;52.412;4.890;2023-02-14T14:54:16;103155.06;;;14.71;100.00
47260;BME280;32999;52.412;4.890;2023-02-14T14:59:28;103040.50;;;13.81;100.00
47260;BME280;32999;52.412;4.890;2023-02-14T15:04:32;103062.56;;;14.11;100.00
47260;BME280;32999;52.412;4.890;2023-02-14T15:09:35;103092.09;;;14.20;100.00
47260;BME280;32999;52.412;4.890;2023-02-14T15:14:41;103090.41;;;14.19;100.00
47260;BME280;32999;52.412;4.890;2023-02-14T15:19:44;103144.19;;;14.55;100.00
47260;BME280;32999;52.412;4.890;2023-02-14T15:24:49;103064.66;;;14.17;100.00
47260;BME280;32999;52.412;4.890;2023-02-14T15:29:54;103066.44;;;14.08;100.00
47260;BME280;32999;52.412;4.890;2023-02-14T15:34:57;103137.28;;;14.35;100.00
47260;BME280;32999;52.412;4.890;2023-02-14T15:40:02;103152.34;;;14.27;100.00
47260;BME280;32999;52.412;4.890;2023-02-14T15:45:18;103125.38;;;14.19;100.00
47260;BME280;32999;52.412;4.890;2023-02-14T15:50:22;103098.84;;;13.89;100.00
47260;BME280;32999;52.412;4.890;2023-02-14T15:55:27;103139.41;;;13.95;100.00
47260;BME280;32999;52.412;4.890;2023-02-14T16:00:31;103097.91;;;13.62;100.00
47260;BME280;32999;52.412;4.890;2023-02-14T16:05:33;103110.44;;;13.72;100.00
47260;BME280;32999;52.412;4.890;2023-02-14T16:10:37;103072.09;;;13.34;100.00
47260;BME280;32999;52.412;4.890;2023-02-14T16:15:54;103104.78;;;13.47;100.00
47260;BME280;32999;52.412;4.890;2023-02-14T16:21:12;103093.03;;;13.31;100.00
47260;BME280;32999;52.412;4.890;2023-02-14T16:26:16;103025.28;;;12.72;100.00
47260;BME280;32999;52.412;4.890;2023-02-14T16:31:18;103079.28;;;12.97;100.00
47260;BME280;32999;52.412;4.890;2023-02-14T16:36:23;103109.81;;;12.95;100.00
47260;BME280;32999;52.412;4.890;2023-02-14T16:41:29;103034.88;;;12.28;100.00
47260;BME280;32999;52.412;4.890;2023-02-14T16:46:31;103102.56;;;12.59;100.00
47260;BME280;32999;52.412;4.890;2023-02-14T16:51:35;103126.16;;;12.46;100.00
47260;BME280;32999;52.412;4.890;2023-02-14T16:56:42;103133.38;;;12.26;100.00
47260;BME280;32999;52.412;4.890;2023-02-14T17:01:45;103117.44;;;12.05;100.00
47260;BME280;32999;52.412;4.890;2023-02-14T17:06:49;103108.03;;;11.71;100.00
47260;BME280;32999;52.412;4.890;2023-02-14T17:11:56;103073.44;;;11.39;100.00
47260;BME280;32999;52.412;4.890;2023-02-14T17:17:01;103126.88;;;11.50;100.00
47260;BME280;32999;52.412;4.890;2023-02-14T17:22:03;103117.94;;;11.30;100.00
47260;BME280;32999;52.412;4.890;2023-02-14T17:27:07;103126.88;;;11.10;100.00
47260;BME280;32999;52.412;4.890;2023-02-14T17:32:09;103126.75;;;10.90;100.00
47260;BME280;32999;52.412;4.890;2023-02-14T17:37:11;103118.00;;;10.58;100.00
47260;BME280;32999;52.412;4.890;2023-02-14T17:42:14;103003.59;;;9.78;100.00
47260;BME280;32999;52.412;4.890;2023-02-14T17:47:16;103134.53;;;10.31;100.00
47260;BME280;32999;52.412;4.890;2023-02-14T17:52:19;103118.19;;;10.13;100.00
47260;BME280;32999;52.412;4.890;2023-02-14T17:57:24;103132.22;;;9.95;100.00
47260;BME280;32999;52.412;4.890;2023-02-14T18:02:26;103080.38;;;9.54;100.00
47260;BME280;32999;52.412;4.890;2023-02-14T18:07:28;103043.94;;;9.10;100.00
47260;BME280;32999;52.412;4.890;2023-02-14T18:12:31;103110.72;;;9.53;100.00
47260;BME280;32999;52.412;4.890;2023-02-14T18:17:35;103119.69;;;9.41;100.00
47260;BME280;32999;52.412;4.890;2023-02-14T18:22:38;103112.69;;;9.29;100.00
47260;BME280;32999;52.412;4.890;2023-02-14T18:27:44;103118.97;;;9.16;100.00
47260;BME280;32999;52.412;4.890;2023-02-14T18:32:48;102987.16;;;8.18;100.00
47260;BME280;32999;52.412;4.890;2023-02-14T18:37:50;103113.75;;;8.93;100.00
47260;BME280;32999;52.412;4.890;2023-02-14T18:42:54;103085.59;;;8.55;100.00
47260;BME280;32999;52.412;4.890;2023-02-14T18:47:57;103109.59;;;8.66;100.00
47260;BME280;32999;52.412;4.890;2023-02-14T18:52:59;103121.00;;;8.57;100.00
47260;BME280;32999;52.412;4.890;2023-02-14T18:58:04;103126.28;;;8.46;100.00
47260;BME280;32999;52.412;4.890;2023-02-14T19:03:07;102976.91;;;7.55;100.00
47260;BME280;32999;52.412;4.890;2023-02-14T19:08:09;103107.28;;;8.27;100.00
47260;BME280;32999;52.412;4.890;2023-02-14T19:13:22;103046.44;;;7.74;100.00
47260;BME280;32999;52.412;4.890;2023-02-14T19:18:41;103120.41;;;8.06;100.00
47260;BME280;32999;52.412;4.890;2023-02-14T19:23:54;103097.00;;;7.98;100.00
47260;BME280;32999;52.412;4.890;2023-02-14T19:29:10;103100.94;;;7.81;100.00
47260;BME280;32999;52.412;4.890;2023-02-14T20:06:14;103080.72;;;7.06;100.00
47260;BME280;32999;52.412;4.890;2023-02-14T20:11:57;103076.88;;;6.97;100.00
47260;BME280;32999;52.412;4.890;2023-02-14T20:17:47;103075.00;;;6.87;100.00
47260;BME280;32999;52.412;4.890;2023-02-14T20:22:52;103087.97;;;6.78;100.00
47260;BME280;32999;52.412;4.890;2023-02-14T20:27:57;103063.72;;;6.70;100.00
47260;BME280;32999;52.412;4.890;2023-02-14T20:32:59;103066.06;;;6.62;100.00
47260;BME280;32999;52.412;4.890;2023-02-14T20:38:03;103002.28;;;6.24;100.00
47260;BME280;32999;52.412;4.890;2023-02-14T20:43:07;103064.88;;;6.54;100.00
47260;BME280;32999;52.412;4.890;2023-02-14T20:48:30;103063.69;;;6.45;100.00
47260;BME280;32999;52.412;4.890;2023-02-14T21:05:10;103042.22;;;6.23;100.00
47260;BME280;32999;52.412;4.890;2023-02-14T21:16:05;103033.59;;;6.06;100.00
47260;BME280;32999;52.412;4.890;2023-02-14T21:21:41;103021.53;;;5.88;100.00
47260;BME280;32999;52.412;4.890;2023-02-14T21:39:15;102982.38;;;5.52;100.00
47260;BME280;32999;52.412;4.890;2023-02-14T22:21:39;103009.31;;;5.19;100.00
47260;BME280;32999;52.412;4.890;2023-02-14T23:33:35;102989.75;;;4.51;100.00
47260;BME280;32999;52.412;4.890;2023-02-14T23:39:18;102981.38;;;4.44;100.00
47260;BME280;32999;52.412;4.890;2023-02-14T23:45:17;102980.03;;;4.37;100.00
